createdAt,value
2018-04-28T09:04:34.951Z,52
2018-04-28T09:05:14.995Z,616
2018-04-28T09:22:48.219Z,71584
2018-04-28T09:38:06.722Z,69312
2018-04-28T09:38:55.640Z,65184
2018-04-28T09:42:37.051Z,76640
2018-04-28T09:43:18.496Z,75808
2018-04-28T09:44:00.733Z,74336
2018-04-28T09:55:10.942Z,63392
2018-04-28T09:56:03.709Z,66400
2018-04-28T09:56:57.887Z,67904
2018-04-28T10:11:40.289Z,56960
2018-04-28T10:12:32.683Z,56448
2018-04-28T10:13:21.539Z,60416
2018-04-28T10:18:50.646Z,69792
2018-04-28T10:19:31.005Z,68768
2018-04-28T10:20:11.656Z,66080
2018-04-28T10:20:52.137Z,65376
2018-04-28T10:21:32.567Z,68256
2018-04-28T10:22:13.075Z,72288
2018-04-28T10:22:54.519Z,72320
2018-04-28T10:23:35.073Z,66624
2018-04-28T10:24:15.564Z,58592
2018-04-28T10:24:56.076Z,56096
2018-04-28T10:25:36.563Z,59904
2018-04-28T10:26:17.146Z,66112
2018-04-28T10:26:57.702Z,69536
2018-04-28T10:27:38.129Z,50112
2018-04-28T10:28:18.652Z,25376
2018-04-28T10:28:59.183Z,12584
2018-04-28T10:29:39.640Z,10772
2018-04-28T10:30:20.221Z,10032
2018-04-28T10:31:00.648Z,9560
2018-04-28T10:31:42.023Z,9204
2018-04-28T10:32:21.704Z,8932
2018-04-28T10:33:02.426Z,8696
2018-04-28T10:33:42.988Z,8464
2018-04-28T10:34:23.513Z,8276
2018-04-28T10:35:04.048Z,8164
2018-04-28T10:35:45.025Z,8104
2018-04-28T10:36:25.083Z,8032
2018-04-28T10:37:05.593Z,7960
2018-04-28T10:37:46.829Z,7920
2018-04-28T10:38:27.348Z,7812
2018-04-28T10:39:08.440Z,7708
2018-04-28T10:39:48.899Z,7600
2018-04-28T10:40:29.464Z,7524
2018-04-28T10:41:09.998Z,7448
2018-04-28T10:41:50.502Z,7368
2018-04-28T10:42:30.993Z,7272
2018-04-28T10:43:11.562Z,7188
2018-04-28T10:43:52.035Z,7096
2018-04-28T10:44:32.669Z,7000
2018-04-28T10:45:13.144Z,6892
2018-04-28T10:45:54.338Z,6792
2018-04-28T10:46:34.890Z,6684
2018-04-28T10:47:15.407Z,6576
2018-04-28T10:47:55.837Z,6480
2018-04-28T10:48:36.399Z,6404
2018-04-28T10:49:16.877Z,6340
2018-04-28T10:49:57.352Z,6264
2018-04-28T10:50:38.580Z,6212
2018-04-28T10:51:18.981Z,6168
2018-04-28T10:52:00.542Z,6128
2018-04-28T10:54:39.626Z,6044
2018-04-28T10:55:27.464Z,6044
2018-04-28T10:56:16.262Z,6092
2018-04-28T10:57:05.064Z,6084
2018-04-28T10:57:50.669Z,6096
2018-04-28T10:58:31.145Z,6084
2018-04-28T10:59:11.734Z,6084
2018-04-28T10:59:52.284Z,6108
2018-04-28T11:00:32.736Z,6148
2018-04-28T11:01:13.266Z,6200
2018-04-28T11:01:53.752Z,6264
2018-04-28T11:02:34.798Z,6320
2018-04-28T11:03:15.916Z,6364
2018-04-28T11:03:57.335Z,6400
2018-04-28T11:07:21.064Z,6444
2018-04-28T11:08:36.660Z,6292
2018-04-28T11:09:16.978Z,6276
2018-04-28T11:09:57.583Z,6256
2018-04-28T11:10:38.733Z,6252
2018-04-28T11:11:20.473Z,6224
2018-04-28T11:12:01.123Z,6252
2018-04-28T11:12:41.938Z,6332
2018-04-28T11:13:23.101Z,6416
2018-04-28T11:14:04.684Z,6532
2018-04-28T11:14:46.420Z,6536
2018-04-28T11:15:26.903Z,6516
2018-04-28T11:16:07.534Z,6472
2018-04-28T11:16:48.297Z,6432
2018-04-28T11:17:28.764Z,6420
2018-04-28T11:18:10.103Z,6408
2018-04-28T11:18:50.659Z,6436
2018-04-28T11:19:31.231Z,6468
2018-04-28T11:20:11.786Z,6488
2018-04-28T11:20:52.304Z,6444
2018-04-28T11:21:32.798Z,6400
2018-04-28T11:22:13.289Z,6372
2018-04-28T11:22:53.823Z,6344
2018-04-28T11:23:34.452Z,6356
2018-04-28T11:24:14.898Z,6428
2018-04-28T11:24:55.469Z,6492
2018-04-28T11:25:35.998Z,6552
2018-04-28T11:26:16.451Z,6584
2018-04-28T11:26:57.990Z,6584
2018-04-28T11:27:38.470Z,6564
2018-04-28T11:28:19.045Z,6504
2018-04-28T11:28:59.545Z,6380
2018-04-28T11:29:40.060Z,6208
2018-04-28T11:30:21.699Z,6080
2018-04-28T11:31:02.237Z,6048
2018-04-28T11:31:42.724Z,6048
2018-04-28T11:32:23.276Z,6068
2018-04-28T11:33:03.778Z,6056
2018-04-28T11:33:44.352Z,5988
2018-04-28T11:34:24.891Z,5892
2018-04-28T11:35:05.338Z,5796
2018-04-28T11:35:45.924Z,5700
2018-04-28T11:36:26.513Z,5620
2018-04-28T11:37:06.953Z,5572
2018-04-28T11:37:47.532Z,5552
2018-04-28T11:38:28.524Z,5500
2018-04-28T11:39:08.568Z,5452
2018-04-28T11:39:49.080Z,5400
2018-04-28T11:40:29.561Z,5340
2018-04-28T11:41:10.071Z,5264
2018-04-28T11:41:50.538Z,5180
2018-04-28T11:42:31.122Z,5096
2018-04-28T11:43:11.640Z,5028
2018-04-28T11:43:52.199Z,4984
2018-04-28T11:44:32.698Z,4956
2018-04-28T11:45:14.524Z,4956
2018-04-28T11:45:53.769Z,4956
2018-04-28T11:46:34.208Z,4980
2018-04-28T11:47:14.885Z,4988
2018-04-28T11:47:55.400Z,5008
2018-04-28T11:48:35.833Z,5056
2018-04-28T11:49:16.358Z,5080
2018-04-28T11:49:56.881Z,5076
2018-04-28T11:50:37.359Z,5056
2018-04-28T11:51:17.982Z,5020
2018-04-28T11:51:58.664Z,4984
2018-04-28T11:52:39.023Z,4932
2018-04-28T11:53:19.558Z,4892
2018-04-28T11:53:59.981Z,4848
2018-04-28T11:54:40.703Z,4800
2018-04-28T11:55:21.216Z,4772
2018-04-28T11:56:01.725Z,4756
2018-04-28T11:56:42.234Z,4764
2018-04-28T11:57:22.713Z,4788
2018-04-28T11:58:03.299Z,4780
2018-04-28T11:58:43.699Z,4836
2018-04-28T11:59:24.234Z,4868
2018-04-28T12:00:04.715Z,4876
2018-04-28T12:00:45.235Z,4880
2018-04-28T12:01:25.677Z,4880
2018-04-28T12:02:06.290Z,4864
2018-04-28T12:02:47.563Z,4840
2018-04-28T12:05:07.506Z,4784
2018-04-28T12:05:54.290Z,4804
2018-04-28T12:06:35.869Z,4812
2018-04-28T12:07:16.354Z,4788
2018-04-28T12:07:56.881Z,4792
2018-04-28T12:08:37.353Z,4816
2018-04-28T12:09:17.889Z,4848
2018-04-28T12:09:58.403Z,4836
2018-04-28T12:10:38.872Z,4828
2018-04-28T12:11:19.474Z,4856
2018-04-28T12:11:59.931Z,4952
2018-04-28T12:12:40.469Z,4964
2018-04-28T12:13:21.382Z,4944
2018-04-28T12:14:01.438Z,4916
2018-04-28T12:14:41.938Z,4900
2018-04-28T12:15:22.474Z,4864
2018-04-28T12:16:02.975Z,4844
2018-04-28T12:16:43.424Z,4800
2018-04-28T12:19:03.372Z,4732
2018-04-28T12:19:52.251Z,4732
2018-04-28T12:20:40.843Z,4736
2018-04-28T12:21:29.299Z,4744
2018-04-28T12:22:18.088Z,4764
2018-04-28T12:23:07.293Z,4784
2018-04-28T12:23:55.958Z,4772
2018-04-28T12:24:44.371Z,4748
2018-04-28T12:25:32.783Z,4712
2018-04-28T12:26:21.281Z,4648
2018-04-28T12:27:09.254Z,4564
2018-04-28T12:27:57.495Z,4564
2018-04-28T12:28:46.439Z,4536
2018-04-28T12:29:34.968Z,4520
2018-04-28T12:30:23.594Z,4508
2018-04-28T12:31:12.644Z,4480
2018-04-28T12:32:00.813Z,4448
2018-04-28T12:32:50.050Z,4472
2018-04-28T12:33:37.127Z,4452
2018-04-28T12:34:25.440Z,4432
2018-04-28T12:35:07.013Z,4456
2018-04-28T12:35:47.519Z,4492
2018-04-28T12:36:28.089Z,4548
2018-04-28T12:37:08.544Z,4588
2018-04-28T12:37:49.095Z,4600
2018-04-28T12:38:29.588Z,4612
2018-04-28T12:39:10.143Z,4588
2018-04-28T12:39:50.588Z,4596
2018-04-28T12:40:31.124Z,4608
2018-04-28T12:41:11.591Z,4628
2018-04-28T12:41:52.091Z,4628
2018-04-28T12:42:33.547Z,4648
2018-04-28T12:43:13.168Z,4672
2018-04-28T12:43:53.753Z,4688
2018-04-28T12:44:34.223Z,4716
2018-04-28T12:45:14.747Z,4748
2018-04-28T12:45:55.279Z,4776
2018-04-28T12:46:35.741Z,4792
2018-04-28T12:47:17.050Z,4788
2018-04-28T12:47:57.672Z,4704
2018-04-28T12:48:38.135Z,4652
2018-04-28T12:49:18.658Z,4620
2018-04-28T12:49:59.149Z,4628
2018-04-28T12:50:39.812Z,4640
2018-04-28T12:51:20.185Z,4640
2018-04-28T12:52:00.636Z,4620
2018-04-28T12:52:41.201Z,4596
2018-04-28T12:53:21.670Z,4584
2018-04-28T12:54:02.339Z,4644
2018-04-28T12:54:43.419Z,4688
2018-04-28T12:55:23.971Z,4672
2018-04-28T12:56:04.433Z,4724
2018-04-28T12:56:44.990Z,4772
2018-04-28T12:57:25.488Z,4764
2018-04-28T12:58:05.970Z,4780
2018-04-28T12:58:46.510Z,4808
2018-04-28T12:59:26.958Z,4812
2018-04-28T13:00:07.476Z,4868
2018-04-28T13:00:48.031Z,4912
2018-04-28T13:01:28.507Z,4924
2018-04-28T13:02:09.022Z,4948
2018-04-28T13:02:49.509Z,5000
2018-04-28T13:03:30.073Z,5056
2018-04-28T13:04:11.451Z,5096
2018-04-28T13:04:51.777Z,5136
2018-04-28T13:05:32.324Z,5140
2018-04-28T13:06:13.707Z,5160
2018-04-28T13:06:54.182Z,5156
2018-04-28T13:07:34.743Z,5152
2018-04-28T13:08:15.157Z,5148
2018-04-28T13:08:55.704Z,5132
2018-04-28T13:09:36.213Z,5132
2018-04-28T13:10:16.743Z,5128
2018-04-28T13:10:57.267Z,5132
2018-04-28T13:11:37.766Z,5132
2018-04-28T13:12:18.308Z,5124
2018-04-28T13:12:58.901Z,5132
2018-04-28T13:13:40.068Z,5128
2018-04-28T13:14:20.601Z,5212
2018-04-28T13:15:01.168Z,5192
2018-04-28T13:15:41.622Z,5044
2018-04-28T13:16:22.192Z,5036
2018-04-28T13:17:02.635Z,5136
2018-04-28T13:17:43.159Z,5224
2018-04-28T13:18:23.707Z,5356
2018-04-28T13:19:04.131Z,5460
2018-04-28T13:19:44.630Z,5272
2018-04-28T13:20:25.145Z,5124
2018-04-28T13:21:05.676Z,5048
2018-04-28T13:21:46.193Z,4976
2018-04-28T13:22:26.727Z,5100
2018-04-28T13:23:07.165Z,5444
2018-04-28T13:23:47.681Z,5768
2018-04-28T13:24:28.151Z,5828
2018-04-28T13:25:08.685Z,5864
2018-04-28T13:25:49.144Z,5824
2018-04-28T13:26:29.632Z,5760
2018-04-28T13:27:10.194Z,5848
2018-04-28T13:27:51.711Z,5964
2018-04-28T13:28:32.415Z,6176
2018-04-28T13:29:12.977Z,6304
2018-04-28T13:29:53.396Z,6340
2018-04-28T13:30:34.261Z,6340
2018-04-28T13:31:15.270Z,6264
2018-04-28T13:31:55.644Z,6228
2018-04-28T13:32:36.159Z,6392
2018-04-28T13:33:16.743Z,6540
2018-04-28T13:33:57.207Z,6684
2018-04-28T13:34:37.753Z,6688
2018-04-28T13:35:18.193Z,6600
2018-04-28T13:35:58.759Z,6464
2018-04-28T13:36:39.559Z,6324
2018-04-28T13:37:20.085Z,6192
2018-04-28T13:38:00.581Z,6108
2018-04-28T13:38:41.137Z,6108
2018-04-28T13:39:21.590Z,6372
2018-04-28T13:40:02.157Z,6660
2018-04-28T13:40:43.075Z,7080
2018-04-28T13:41:23.147Z,7480
2018-04-28T13:42:03.663Z,7864
2018-04-28T13:42:44.236Z,8160
2018-04-28T13:43:24.690Z,8360
2018-04-28T13:44:05.212Z,8440
2018-04-28T13:44:45.663Z,8500
2018-04-28T13:45:26.244Z,8576
2018-04-28T13:46:06.845Z,8608
2018-04-28T13:46:47.352Z,8688
2018-04-28T13:47:27.862Z,8792
2018-04-28T13:48:08.378Z,8924
2018-04-28T13:48:48.907Z,9064
2018-04-28T13:49:29.311Z,9160
2018-04-28T13:50:09.918Z,9212
2018-04-28T13:50:50.406Z,9244
2018-04-28T13:51:30.975Z,9284
2018-04-28T13:52:11.452Z,9248
2018-04-28T13:52:52.578Z,9180
2018-04-28T13:53:32.439Z,9092
2018-04-28T13:54:12.962Z,8940
2018-04-28T13:54:54.144Z,8732
2018-04-28T13:55:34.707Z,8640
2018-04-28T13:56:15.178Z,8660
2018-04-28T13:56:55.711Z,8700
2018-04-28T13:57:36.270Z,8804
2018-04-28T13:58:16.770Z,8924
2018-04-28T13:58:57.331Z,9032
2018-04-28T13:59:37.872Z,9092
2018-04-28T14:00:18.288Z,9076
2018-04-28T14:00:58.966Z,9056
2018-04-28T14:01:39.480Z,8996
2018-04-28T14:02:19.943Z,8836
2018-04-28T14:03:00.494Z,8612
2018-04-28T14:03:41.091Z,8396
2018-04-28T14:04:21.460Z,8252
2018-04-28T14:05:01.982Z,8132
2018-04-28T14:05:42.541Z,8024
2018-04-28T14:06:23.047Z,7980
2018-04-28T14:07:03.556Z,7908
2018-04-28T14:07:44.047Z,7764
2018-04-28T14:08:24.534Z,7604
2018-04-28T14:09:05.045Z,7472
2018-04-28T14:09:45.611Z,7328
2018-04-28T14:10:26.197Z,7168
2018-04-28T14:11:06.873Z,6920
2018-04-28T14:11:47.270Z,6700
2018-04-28T14:12:27.770Z,6580
2018-04-28T14:13:08.323Z,6468
2018-04-28T14:13:48.777Z,6372
2018-04-28T14:14:29.290Z,6368
2018-04-28T14:15:09.768Z,6392
2018-04-28T14:15:50.298Z,6464
2018-04-28T14:16:30.874Z,6492
2018-04-28T14:17:11.294Z,6544
2018-04-28T14:17:51.881Z,6572
2018-04-28T14:18:32.344Z,6596
2018-04-28T14:19:12.882Z,6608
2018-04-28T14:19:53.440Z,6652
2018-04-28T14:20:33.913Z,6704
2018-04-28T14:21:14.436Z,6752
2018-04-28T14:21:54.949Z,6680
2018-04-28T14:22:35.518Z,6492
2018-04-28T14:23:15.980Z,6456
2018-04-28T14:23:56.490Z,6496
2018-04-28T14:24:37.041Z,6680
2018-04-28T14:25:17.525Z,6832
2018-04-28T14:25:58.105Z,6904
2018-04-28T14:26:38.571Z,6844
2018-04-28T14:27:19.046Z,6740
2018-04-28T14:27:59.568Z,6548
2018-04-28T14:28:40.089Z,6424
2018-04-28T14:29:20.601Z,6224
2018-04-28T14:30:01.149Z,6040
2018-04-28T14:30:41.616Z,5864
2018-04-28T14:31:22.155Z,5692
2018-04-28T14:32:02.874Z,5564
2018-04-28T14:32:43.395Z,5432
2018-04-28T14:33:23.946Z,5328
2018-04-28T14:34:04.439Z,5344
2018-04-28T14:34:44.924Z,5440
2018-04-28T14:35:25.415Z,5492
2018-04-28T14:36:05.913Z,5500
2018-04-28T14:36:46.719Z,5464
2018-04-28T14:37:29.097Z,5408
2018-04-28T14:38:09.013Z,5300
2018-04-28T14:38:49.584Z,5172
2018-04-28T14:39:30.028Z,5024
2018-04-28T14:40:10.561Z,4856
2018-04-28T14:40:51.039Z,4680
2018-04-28T14:41:31.503Z,4524
2018-04-28T14:44:07.336Z,3964
2018-04-28T14:44:56.375Z,3840
2018-04-28T14:45:45.040Z,3740
2018-04-28T14:46:31.228Z,3652
2018-04-28T14:47:18.638Z,3588
2018-04-28T14:48:05.361Z,3528
2018-04-28T14:48:45.888Z,3480
2018-04-28T14:49:26.367Z,3448
2018-04-28T14:50:06.832Z,3416
2018-04-28T14:50:47.368Z,3388
2018-04-28T14:51:27.938Z,3368
2018-04-28T14:54:03.588Z,3284
2018-04-28T14:54:52.062Z,3264
2018-04-28T14:55:40.919Z,3240
2018-04-28T14:56:40.028Z,3220
2018-04-28T14:57:27.271Z,3204
2018-04-28T14:58:16.528Z,3192
2018-04-28T14:59:00.901Z,3180
2018-04-28T14:59:46.682Z,3168
2018-04-28T15:00:27.200Z,3160
2018-04-28T15:01:07.694Z,3148
2018-04-28T15:01:48.240Z,3132
2018-04-28T15:02:28.755Z,3124
2018-04-28T15:03:09.307Z,3112
2018-04-28T15:03:49.808Z,3104
2018-04-28T15:04:30.621Z,3096
2018-04-28T15:05:11.074Z,3092
2018-04-28T15:05:51.586Z,3084
2018-04-28T15:06:32.275Z,3076
2018-04-28T15:07:12.733Z,3064
2018-04-28T15:07:53.802Z,3060
2018-04-28T15:35:18.857Z,3388
2018-04-28T15:36:07.521Z,3368
2018-04-28T15:36:56.225Z,3348
2018-04-28T15:37:44.762Z,3328
2018-04-28T15:40:25.350Z,3420
2018-04-28T15:41:15.522Z,3488
2018-04-28T15:46:45.651Z,4064
2018-04-28T15:47:46.667Z,3976
2018-04-28T15:48:37.281Z,3856
2018-04-28T16:19:53.914Z,2836
2018-04-28T16:20:42.555Z,2828
2018-04-28T16:21:31.553Z,2820
2018-04-28T17:13:59.022Z,1832
2018-04-28T17:14:51.109Z,1796
2018-04-28T17:15:40.451Z,1788
2018-04-28T17:16:29.368Z,1768
2018-04-28T17:19:51.441Z,1672
2018-04-28T17:20:40.321Z,1656
2018-04-28T17:22:19.784Z,1604
2018-04-28T17:23:08.520Z,1572
2018-04-28T17:26:31.113Z,1468
2018-04-28T17:27:19.949Z,1440
2018-04-28T17:28:08.983Z,1420
2018-04-28T17:28:57.976Z,1392
2018-04-28T17:29:46.796Z,1368
2018-04-28T17:30:35.590Z,1344
2018-04-28T17:31:25.165Z,1316
2018-04-28T17:32:16.060Z,1296
2018-04-28T17:33:04.659Z,1272
2018-04-28T17:33:53.660Z,1260
2018-04-28T17:35:32.449Z,1220
2018-04-28T17:36:21.386Z,1200
2018-04-28T17:37:09.946Z,1172
2018-04-28T17:38:03.024Z,1156
2018-04-28T17:38:49.111Z,1140
2018-04-28T17:39:38.441Z,1124
2018-04-28T17:40:27.034Z,1104
2018-04-28T17:41:15.837Z,1084
2018-04-28T17:42:04.221Z,1060
2018-04-28T17:42:53.895Z,1032
2018-04-28T17:43:42.991Z,1008
2018-04-28T17:44:37.762Z,980
2018-04-28T17:45:24.230Z,956
2018-04-28T17:46:04.803Z,932
2018-04-28T17:46:47.508Z,916
2018-04-28T17:47:28.141Z,892
2018-04-28T17:48:08.742Z,872
2018-04-28T17:52:50.426Z,756
